Bhavnagar Airport
VABV : now visible

Airfield :











YOU CAN JOIN US ON...

 
LOGIN :

Register | Disclaimer

   EN    FR    IT 

 









Legend :    VFR   Marginal VFR   IFR   Intensive IFR   Very Intensive IFR
Visi :
Ceiling :
>= 8 km
>= 3000ft
5 to 8 km
1000 to 3000 ft
1500m to 5 km
500 to 1000 ft
800 to 1500m
200 to 500 ft
< 800m
< 200 ft
Symbols :   Thunderstorms  Fog  Heavy snow  Heavy precipitations  Wind > 20 kt







- Airport Elevation : 44 ft
- IATA code : BHU


VABV - Bhavnagar

CURRENT METAR :
  • 231400Z 00000KT 4000 FU NSC 34/09 Q1010

EXPIRED METARs :
  • 231300Z 05004KT 4000 FU NSC 35/06 Q1010
  • 231230Z 04005KT 5000 FU NSC 35/05 Q1010
  • 231200Z 05005KT 5000 FU NSC 36/04 Q1010

TAF TAF VABV
Valid from the 23 at 15:00 until the 24 at 00:00 UTC


231400Z 2315/2324 30006KT 4000 FUHZ NSC
VABF FIR / Asia



MET'MAP, your aeronautical weather chart ! - Copyright ORBIFLY December 2007 - Disclaimer

ORBIFLY MET'MAP TEAM :

Programming & Development : Alexandra Zaïnal
Concept & Development : Baudouin d'Aumeries
Co-Development & Prog : Marc-Olivier Méhu
Technical & hardware support : Manuel Goepfert

Contact : metmap@orbifly.com




SOURCES & CREDITS :

   NOAA       Earth
Advisory